Terminal Aerodrome Forecast
Issued by NWS

Home | Current Version | Previous Version | Graphics & Text | Print | Product List | Glossary On
Versions: 1 2 3 4 5 6 7 8 9 10 11 12 13 14 15 16 17 18 19 20
696
FTUS43 KICT 110539
TAFRSL
TAF
KRSL 110539Z 1106/1206 02008KT P6SM BKN250
     FM111200 01008KT P6SM BKN015
     FM111600 01006KT P6SM BKN025
     FM111800 VRB05KT P6SM SCT035
     FM112000 19007KT P6SM SCT250
     FM120200 33012KT P6SM SCT250=

USA.gov is the U.S. government's official web portal to all federal, state and local government web resources and services.